Bei Facebook empfehlenBei Twitter postenGoogle plusPinterest

Das Wetter im Erzgebirge am 04.04.2017

Wetter und Klima am 04.04.2017 Holzhau im Erzgebirge (630m ü.NN)
Letzte gemessene Temperatur und Uhrzeit der Messung23:45:00 Uhr2.90 °C
Temperatur (Maximum / Höchstwert) und Uhrzeit der Messung16:45:00 Uhr6.10 °C
Temperatur (Minimum / Tiefstwert) und Uhrzeit der Messung23:45:002.90 °C
Errechneter Absolutwert der Temperaturschwankungen zwischen Tmin und Tmax des Tages3.20 K
Errechnete Tagesmitteltemperatur4.93229 °C
Gesamt - Niederschlag des Tages (in flüssiger Form)9.85 Liter / m²
Luftdruck (Maximum / Höchstwert) und Zeitpunkt der Messung00:15:00 Uhr1020.10 hPa
Luftdruck (Minimum / Tiefstwert) und Zeitpunkt der Messung10:15:00 Uhr1017.60 hPa
Errechneter Absolutwert der Luftdruckschwankungen des Tages2.50 hPa
Höchste gemessene Windgeschwindigkeit und Uhrzeit der Messung14:00:00 Uhr6.12 km/h
Errechnete Windhäufigkeit in Relation zu den Messwerten des Tages6.25000 %
Niedrigste Windkühle (Windchill) und Zeitpunkt der Messung23:45:00 Uhr2.90 °C
Taupunkt (Maximum / Höchstwert) und Uhrzeit der Messung16:45:00 Uhr4.90 °C
Taupunkt (Minimum / Tiefstwert) und Uhrzeit der Messung23:45:001.90 °C
Anzahl der automatisch eingelesenen Messwerte 96

Detaillierte Wetter- und Klima- Messwerte für den 04.04.2017 in Holzhau im Erzgebirge (630m ü.NN)
ZeitTemperaturLuftdruckRel. LuftfeuchteWindWindrichtungWindchillTaupunktNiederschlag l/m²
23:45:002.90 °C1018.20 hPa93.00 %1.90 °C9.85
23:30:003.80 °C1018.30 hPa93.00 %2.80 °C9.85
23:15:004.00 °C1018.40 hPa94.00 %3.10 °C9.85
23:00:004.10 °C1018.50 hPa94.00 %3.20 °C9.85
22:45:004.20 °C1018.60 hPa94.00 %3.30 °C9.85
22:30:004.20 °C1018.60 hPa94.00 %3.30 °C9.85
22:15:004.30 °C1018.60 hPa94.00 %3.40 °C9.85
22:00:004.30 °C1018.70 hPa94.00 %3.40 °C9.85
21:45:004.30 °C1018.80 hPa94.00 %3.40 °C9.85
21:30:004.30 °C1018.90 hPa94.00 %3.40 °C9.85
21:15:004.30 °C1018.80 hPa94.00 %3.40 °C9.85
21:00:004.30 °C1018.60 hPa93.00 %3.30 °C9.85
20:45:004.40 °C1018.60 hPa93.00 %3.40 °C9.85
20:30:004.40 °C1018.60 hPa93.00 %3.40 °C9.85
20:15:004.40 °C1018.40 hPa93.00 %3.40 °C9.85
20:00:004.50 °C1018.00 hPa93.00 %3.50 °C9.85
19:45:004.60 °C1017.90 hPa93.00 %3.60 °C9.85
19:30:004.70 °C1017.90 hPa93.00 %3.70 °C9.85
19:15:004.80 °C1017.70 hPa93.00 %3.80 °C9.85
19:00:004.90 °C1017.90 hPa93.00 %3.90 °C9.85
18:45:004.90 °C1018.00 hPa92.00 %3.70 °C9.85
18:30:005.10 °C1017.90 hPa93.00 %4.10 °C9.85
18:15:005.20 °C1017.90 hPa93.00 %4.20 °C9.85
18:00:005.30 °C1017.90 hPa92.00 %4.10 °C9.85
17:45:005.40 °C1017.90 hPa92.00 %3.24 km/hNW5.40 °C4.20 °C9.85
17:30:005.60 °C1017.80 hPa92.00 %4.40 °C9.85
17:15:005.60 °C1017.90 hPa91.00 %4.20 °C9.85
17:00:005.90 °C1018.00 hPa92.00 %4.70 °C9.85
16:45:006.10 °C1018.00 hPa92.00 %4.90 °C9.85
16:30:005.90 °C1017.90 hPa92.00 %2.88 km/hNW5.90 °C4.70 °C9.85
16:15:005.60 °C1017.90 hPa92.00 %4.40 °C9.85
16:00:005.60 °C1017.90 hPa92.00 %4.40 °C9.85
15:45:005.40 °C1018.00 hPa92.00 %4.20 °C9.85
15:30:005.60 °C1017.80 hPa92.00 %4.40 °C9.85
15:15:005.60 °C1017.80 hPa93.00 %4.60 °C9.85
15:00:005.60 °C1017.80 hPa93.00 %4.60 °C9.85
14:45:005.50 °C1017.90 hPa93.00 %4.50 °C9.85
14:30:005.30 °C1017.80 hPa93.00 %4.30 °C9.33
14:15:005.20 °C1017.90 hPa93.00 %4.20 °C9.33
14:00:005.30 °C1017.90 hPa93.00 %6.12 km/hSO4.00 °C4.30 °C9.33
13:45:005.20 °C1017.90 hPa93.00 %4.20 °C9.33
13:30:005.20 °C1017.70 hPa93.00 %4.20 °C9.33
13:15:005.30 °C1017.70 hPa93.00 %4.30 °C9.33
13:00:005.20 °C1017.70 hPa93.00 %4.20 °C9.33
12:45:005.30 °C1017.70 hPa92.00 %4.10 °C9.33
12:30:005.60 °C1017.80 hPa93.00 %4.60 °C9.33
12:15:005.50 °C1017.70 hPa93.00 %4.50 °C9.33
12:00:005.20 °C1017.80 hPa93.00 %4.20 °C8.81
11:45:004.90 °C1018.00 hPa93.00 %3.90 °C8.81
11:30:004.90 °C1017.90 hPa92.00 %1.08 km/hOSO4.90 °C3.70 °C8.29
11:15:005.00 °C1017.70 hPa92.00 %3.80 °C8.29
11:00:005.20 °C1017.70 hPa93.00 %4.20 °C7.77
10:45:005.10 °C1017.70 hPa93.00 %4.10 °C7.26
10:30:004.90 °C1017.80 hPa93.00 %2.88 km/hONO4.90 °C3.90 °C7.26
10:15:004.60 °C1017.60 hPa92.00 %4.68 km/hSSO4.60 °C3.40 °C7.26
10:00:004.60 °C1017.70 hPa93.00 %3.60 °C6.74
09:45:004.50 °C1017.70 hPa93.00 %3.50 °C6.74
09:30:004.40 °C1017.60 hPa93.00 %3.40 °C6.22
09:15:004.30 °C1017.70 hPa93.00 %3.30 °C6.22
09:00:004.30 °C1017.90 hPa93.00 %3.30 °C5.70
08:45:004.20 °C1018.00 hPa93.00 %3.20 °C5.18
08:30:004.30 °C1018.00 hPa93.00 %3.30 °C4.67
08:15:004.40 °C1018.30 hPa93.00 %3.40 °C4.15
08:00:004.40 °C1018.10 hPa93.00 %3.40 °C3.63
07:45:004.40 °C1018.30 hPa93.00 %3.40 °C3.11
07:30:004.40 °C1018.30 hPa93.00 %3.40 °C2.59
07:15:004.50 °C1018.10 hPa93.00 %3.50 °C2.08
07:00:004.50 °C1018.10 hPa93.00 %3.50 °C2.08
06:45:004.50 °C1018.30 hPa92.00 %3.30 °C1.56
06:30:004.60 °C1018.40 hPa92.00 %3.40 °C1.04
06:15:004.60 °C1018.40 hPa92.00 %3.40 °C1.04
06:00:004.70 °C1018.20 hPa92.00 %3.50 °C 
05:45:004.80 °C1018.20 hPa92.00 %3.60 °C 
05:30:004.90 °C1018.30 hPa92.00 %3.70 °C 
05:15:004.90 °C1018.30 hPa91.00 %3.60 °C 
05:00:004.90 °C1018.20 hPa91.00 %3.60 °C 
04:45:004.90 °C1018.20 hPa91.00 %3.60 °C 
04:30:004.90 °C1018.40 hPa90.00 %3.40 °C 
04:15:005.10 °C1018.30 hPa90.00 %3.60 °C 
04:00:005.10 °C1018.30 hPa90.00 %3.60 °C 
03:45:005.10 °C1018.40 hPa90.00 %3.60 °C 
03:30:005.10 °C1018.40 hPa89.00 %3.40 °C 
03:15:005.20 °C1018.60 hPa89.00 %3.50 °C 
03:00:005.20 °C1018.50 hPa89.00 %3.50 °C 
02:45:005.30 °C1018.80 hPa89.00 %3.60 °C 
02:30:005.30 °C1018.90 hPa89.00 %3.60 °C 
02:15:005.30 °C1018.90 hPa89.00 %3.60 °C 
02:00:005.30 °C1019.20 hPa89.00 %3.60 °C 
01:45:005.40 °C1019.20 hPa89.00 %3.70 °C 
01:30:005.40 °C1019.50 hPa89.00 %3.70 °C 
01:15:005.50 °C1019.60 hPa89.00 %3.80 °C 
01:00:005.50 °C1019.80 hPa88.00 %3.70 °C 
00:45:005.50 °C1019.70 hPa89.00 %3.80 °C 
00:30:005.60 °C1019.80 hPa89.00 %3.90 °C 
00:15:005.60 °C1020.10 hPa89.00 %3.90 °C 
00:00:005.60 °C1020.10 hPa89.00 %3.90 °C 

Permanenter Link zu dieser Seite: Wetter im Erzgebirge am 04.04.2017
Performance-Info: Die Erstellung der Seite / Statistik(en) / Tabelle(n) erforderte 5 Datenbankserver-Abfrage(n) und dauerte 137 Millisekunden. (Dieser Messwert ist von der Gesamt-Auslastung des Servers abhängig.)
Erzgebirge - Wetter | Erzgebirge - Wetter (Mobilgeräte) | Komplette Klimadatenbank